Time;durP1;ratioP1;P1;durP2;ratioP2;P2;SDS_P1;SDS_P2;PMS_P1;PMS_P2;Temp;Humidity;BMP_temperature;BMP_pressure;BME280_temperature;BME280_humidity;BME280_pressure;Samples;Min_cycle;Max_cycle;Signal;HPM_P1;HPM_P2
2021/09/18 00:01:08;;;;;;;6.10;3.70;;;19.50;85.00;;;;;;5033889;28;20025;-78
2021/09/18 00:03:34;;;;;;;6.82;4.18;;;19.40;84.90;;;;;;5051641;28;20033;-77
2021/09/18 00:06:00;;;;;;;7.93;3.80;;;19.50;84.50;;;;;;5034239;28;20110;-78
2021/09/18 00:08:25;;;;;;;6.70;3.88;;;19.50;84.70;;;;;;5033548;28;20083;-77
2021/09/18 00:10:51;;;;;;;9.25;4.18;;;19.40;85.10;;;;;;5034229;28;20025;-78
2021/09/18 00:13:17;;;;;;;7.75;4.30;;;19.40;84.80;;;;;;5034077;28;20021;-77
2021/09/18 00:15:42;;;;;;;8.15;3.90;;;19.40;84.20;;;;;;5033767;28;20029;-78
2021/09/18 00:18:08;;;;;;;7.68;3.80;;;19.40;83.90;;;;;;5034021;28;20037;-78
2021/09/18 00:20:34;;;;;;;8.75;3.72;;;19.40;84.00;;;;;;5033667;28;20079;-77
2021/09/18 00:23:00;;;;;;;7.32;3.70;;;19.40;84.60;;;;;;5028967;28;20022;-78
2021/09/18 00:25:26;;;;;;;7.70;3.85;;;19.40;84.50;;;;;;5014252;28;20024;-77
2021/09/18 00:27:52;;;;;;;7.95;3.70;;;19.40;84.80;;;;;;5014172;28;20024;-77
2021/09/18 00:30:17;;;;;;;8.43;3.78;;;19.40;84.40;;;;;;5013634;28;20029;-78
2021/09/18 00:32:43;;;;;;;8.07;3.78;;;19.40;84.60;;;;;;5014114;28;20053;-77
2021/09/18 00:35:09;;;;;;;7.43;4.00;;;19.40;84.80;;;;;;5031796;28;20025;-76
2021/09/18 00:37:35;;;;;;;8.30;4.13;;;19.40;84.20;;;;;;5013562;28;20112;-78
2021/09/18 00:40:01;;;;;;;8.50;4.25;;;19.40;83.90;;;;;;5014198;28;20026;-78
2021/09/18 00:42:26;;;;;;;6.70;3.97;;;19.40;84.50;;;;;;5031607;28;20060;-77
2021/09/18 00:44:52;;;;;;;6.57;4.10;;;19.40;84.40;;;;;;5013624;28;20053;-77
2021/09/18 00:47:18;;;;;;;6.55;3.80;;;19.40;84.40;;;;;;5014044;28;20391;-78
2021/09/18 00:49:44;;;;;;;6.78;4.03;;;19.40;83.70;;;;;;5031772;28;20037;-78
2021/09/18 00:52:09;;;;;;;7.18;4.00;;;19.40;84.20;;;;;;5031228;28;20030;-78
2021/09/18 00:54:35;;;;;;;8.40;4.05;;;19.40;84.80;;;;;;5014092;28;20087;-78
2021/09/18 00:57:02;;;;;;;7.47;4.28;;;19.40;84.70;;;;;;5013635;28;20029;-79
2021/09/18 00:59:27;;;;;;;6.63;3.78;;;19.40;84.70;;;;;;5013578;28;20029;-76
2021/09/18 01:01:53;;;;;;;9.50;3.72;;;19.40;84.30;;;;;;5013745;28;20026;-78
2021/09/18 01:04:19;;;;;;;7.03;4.07;;;19.40;84.40;;;;;;5014499;28;20445;-78
2021/09/18 01:06:44;;;;;;;7.22;4.45;;;19.30;84.50;;;;;;5013447;28;20021;-77
2021/09/18 01:09:10;;;;;;;6.05;3.50;;;19.30;84.10;;;;;;5017603;28;20036;-77
2021/09/18 01:11:36;;;;;;;7.00;3.97;;;19.40;84.20;;;;;;4993258;28;20120;-77
2021/09/18 01:14:02;;;;;;;6.93;3.72;;;19.30;84.40;;;;;;4992717;28;20026;-77
2021/09/18 01:16:27;;;;;;;6.63;4.10;;;19.30;83.90;;;;;;4993214;28;20442;-77
2021/09/18 01:18:53;;;;;;;8.13;4.15;;;19.30;84.20;;;;;;5011509;28;20030;-77
2021/09/18 01:21:19;;;;;;;8.52;3.90;;;19.30;84.90;;;;;;4993740;28;20025;-77
2021/09/18 01:23:45;;;;;;;6.90;4.15;;;19.30;84.30;;;;;;5015793;28;20082;-78
2021/09/18 01:26:11;;;;;;;7.50;4.10;;;19.30;84.40;;;;;;5033676;28;20048;-77
2021/09/18 01:28:39;;;;;;;6.50;3.85;;;19.30;84.50;;;;;;5032715;28;20390;-78
2021/09/18 01:31:05;;;;;;;6.60;3.85;;;19.30;83.80;;;;;;5051069;28;20074;-77
2021/09/18 01:33:31;;;;;;;7.10;4.03;;;19.30;84.20;;;;;;5036945;28;20025;-76
2021/09/18 01:35:56;;;;;;;7.35;3.90;;;19.30;84.30;;;;;;5036548;28;20029;-78
2021/09/18 01:38:22;;;;;;;7.80;3.95;;;19.30;84.60;;;;;;5036642;28;20021;-78
2021/09/18 01:40:48;;;;;;;7.28;3.70;;;19.30;84.30;;;;;;5036775;28;20227;-77
2021/09/18 01:43:15;;;;;;;6.25;4.10;;;19.30;84.40;;;;;;5036067;28;20025;-78
2021/09/18 01:45:41;;;;;;;6.53;4.00;;;19.30;84.20;;;;;;5036789;28;20056;-77
2021/09/18 01:48:09;;;;;;;7.10;4.00;;;19.30;84.30;;;;;;5054469;28;20052;-78
2021/09/18 01:50:48;;;;;;;6.03;3.72;;;19.30;83.80;;;;;;5036235;28;20656;-78
2021/09/18 01:53:19;;;;;;;7.97;3.97;;;19.30;84.20;;;;;;5036798;28;20051;-77
2021/09/18 01:55:46;;;;;;;7.85;3.88;;;19.30;84.10;;;;;;5054419;28;20474;-78
2021/09/18 01:58:13;;;;;;;7.20;3.67;;;19.30;83.90;;;;;;5035700;28;20056;-77
2021/09/18 02:00:44;;;;;;;6.78;3.50;;;19.30;84.50;;;;;;5036567;28;20490;-77
2021/09/18 02:03:10;;;;;;;6.72;3.60;;;19.20;84.50;;;;;;5036014;28;20055;-77
2021/09/18 02:05:36;;;;;;;6.25;3.85;;;19.30;84.10;;;;;;5036117;28;20518;-77
2021/09/18 02:08:02;;;;;;;5.32;3.40;;;19.30;84.30;;;;;;5035796;28;20075;-76
2021/09/18 02:10:29;;;;;;;7.65;4.10;;;19.30;83.40;;;;;;5036248;28;20032;-77
2021/09/18 02:12:56;;;;;;;7.03;3.53;;;19.30;84.20;;;;;;5016744;28;20058;-77
2021/09/18 02:15:23;;;;;;;6.32;4.07;;;19.20;83.90;;;;;;5028843;28;20030;-77
2021/09/18 02:17:50;;;;;;;6.85;4.05;;;19.30;83.80;;;;;;5033570;28;20025;-77
2021/09/18 02:20:19;;;;;;;8.90;4.28;;;19.30;83.10;;;;;;5033631;28;20025;-78
2021/09/18 02:22:45;;;;;;;7.20;3.90;;;19.20;83.80;;;;;;5018884;28;20394;-78
2021/09/18 02:25:12;;;;;;;5.65;3.53;;;19.20;83.80;;;;;;5036208;28;20109;-78
2021/09/18 02:27:38;;;;;;;6.05;4.00;;;19.20;84.10;;;;;;5053268;28;20025;-78
2021/09/18 02:30:07;;;;;;;6.80;3.58;;;19.20;83.70;;;;;;5035969;28;20037;-78
2021/09/18 02:32:35;;;;;;;6.80;3.75;;;19.20;83.20;;;;;;5035808;28;20025;-78
2021/09/18 02:35:05;;;;;;;6.28;3.88;;;19.20;83.20;;;;;;5035596;28;20036;-78
2021/09/18 02:37:30;;;;;;;6.97;3.92;;;19.20;83.00;;;;;;5035819;28;20029;-78
2021/09/18 02:39:56;;;;;;;8.45;3.95;;;19.20;83.60;;;;;;5035834;28;20024;-77
2021/09/18 02:42:21;;;;;;;5.68;3.47;;;19.20;83.40;;;;;;5052851;28;20121;-78
2021/09/18 02:44:47;;;;;;;6.25;3.60;;;19.20;83.70;;;;;;5035869;28;20021;-77
2021/09/18 02:47:12;;;;;;;6.18;3.47;;;19.20;83.80;;;;;;5035168;28;20036;-77
2021/09/18 02:49:38;;;;;;;5.97;3.58;;;19.20;83.00;;;;;;5035401;28;20017;-76
2021/09/18 02:52:04;;;;;;;6.97;3.72;;;19.20;83.30;;;;;;5053301;28;20020;-78
2021/09/18 02:54:29;;;;;;;6.35;3.47;;;19.20;83.70;;;;;;5035683;28;20036;-77
2021/09/18 02:56:55;;;;;;;5.63;3.38;;;19.20;83.00;;;;;;5035023;28;20036;-77
2021/09/18 02:59:20;;;;;;;5.47;3.25;;;19.20;83.60;;;;;;5035431;28;20063;-77
2021/09/18 03:01:46;;;;;;;6.22;3.70;;;19.20;83.70;;;;;;5034971;28;20025;-77
2021/09/18 03:04:11;;;;;;;6.82;3.40;;;19.20;83.50;;;;;;5052717;28;20036;-78
2021/09/18 03:06:37;;;;;;;4.88;2.80;;;19.20;83.80;;;;;;5035247;28;20115;-76
2021/09/18 03:09:02;;;;;;;5.95;2.92;;;19.10;83.50;;;;;;5035183;28;20017;-77
2021/09/18 03:11:28;;;;;;;6.22;3.10;;;19.20;83.30;;;;;;5034959;28;20021;-78
2021/09/18 03:13:53;;;;;;;6.22;3.10;;;19.10;83.70;;;;;;5053064;28;20403;-77
2021/09/18 03:16:19;;;;;;;5.95;3.22;;;19.10;83.40;;;;;;5034691;28;20025;-77
2021/09/18 03:18:45;;;;;;;6.18;2.90;;;19.10;83.30;;;;;;5034770;28;20417;-78
2021/09/18 03:21:10;;;;;;;5.30;2.97;;;19.10;83.60;;;;;;5052270;28;20060;-78
2021/09/18 03:23:36;;;;;;;5.95;3.22;;;19.10;82.10;;;;;;5025371;28;20113;-78
2021/09/18 03:26:01;;;;;;;6.13;3.20;;;19.10;83.60;;;;;;5015224;28;20025;-78
2021/09/18 03:28:27;;;;;;;5.35;2.70;;;19.10;83.10;;;;;;5014338;28;20032;-77
2021/09/18 03:30:52;;;;;;;4.32;2.83;;;19.10;83.50;;;;;;5014856;28;20117;-77
2021/09/18 03:33:18;;;;;;;6.65;3.05;;;19.10;83.00;;;;;;5015490;28;20029;-77
2021/09/18 03:35:43;;;;;;;5.68;2.97;;;19.10;83.00;;;;;;5015200;28;20384;-76
2021/09/18 03:38:10;;;;;;;5.32;2.95;;;19.10;82.60;;;;;;5032678;28;20029;-77
2021/09/18 03:40:35;;;;;;;5.68;2.97;;;19.10;82.80;;;;;;5015030;28;20029;-77
2021/09/18 03:43:01;;;;;;;4.93;2.80;;;19.10;82.70;;;;;;5032122;28;20406;-76
2021/09/18 03:45:27;;;;;;;4.25;3.05;;;19.10;82.00;;;;;;5015311;28;20025;-76
2021/09/18 03:47:52;;;;;;;5.50;2.90;;;19.10;82.50;;;;;;5014933;28;20440;-77
2021/09/18 03:50:18;;;;;;;5.75;2.90;;;19.10;82.10;;;;;;5014939;28;20029;-77
2021/09/18 03:52:43;;;;;;;5.13;2.80;;;19.10;82.90;;;;;;5015323;28;20394;-77
2021/09/18 03:55:09;;;;;;;6.68;3.05;;;19.10;83.00;;;;;;5014462;28;20045;-77
2021/09/18 03:57:35;;;;;;;4.68;2.88;;;19.00;82.80;;;;;;5031954;28;20040;-77
2021/09/18 04:00:01;;;;;;;4.78;2.78;;;19.10;82.40;;;;;;5014895;28;20022;-77
2021/09/18 04:02:26;;;;;;;4.85;2.80;;;19.00;81.20;;;;;;5014555;28;20475;-77
2021/09/18 04:04:52;;;;;;;4.28;2.50;;;19.00;82.70;;;;;;5032334;28;20053;-77
2021/09/18 04:07:17;;;;;;;5.70;2.80;;;19.00;82.90;;;;;;5032087;28;20033;-78
2021/09/18 04:09:43;;;;;;;4.80;2.97;;;19.00;82.70;;;;;;5015025;28;20033;-76
2021/09/18 04:12:08;;;;;;;5.65;3.20;;;19.00;82.00;;;;;;5012282;28;20021;-77
2021/09/18 04:14:34;;;;;;;5.45;2.90;;;19.00;82.30;;;;;;5014305;28;20071;-77
2021/09/18 04:16:59;;;;;;;4.20;2.67;;;19.00;82.40;;;;;;5032050;28;20026;-77
2021/09/18 04:19:25;;;;;;;5.45;3.05;;;19.00;81.70;;;;;;5014548;28;20053;-76
2021/09/18 04:21:50;;;;;;;6.28;2.92;;;19.00;82.30;;;;;;5026230;28;20021;-76
2021/09/18 04:24:16;;;;;;;5.07;2.63;;;19.00;82.20;;;;;;5016695;28;20544;-76
2021/09/18 04:26:41;;;;;;;5.05;2.90;;;19.00;81.80;;;;;;5013145;28;20048;-76
2021/09/18 04:29:07;;;;;;;4.93;2.60;;;19.00;82.40;;;;;;5014221;28;20545;-77
2021/09/18 04:31:32;;;;;;;5.00;2.90;;;19.00;82.40;;;;;;5014334;28;20064;-76
2021/09/18 04:33:58;;;;;;;5.20;2.80;;;19.00;82.50;;;;;;5013897;28;20479;-77
2021/09/18 04:36:23;;;;;;;5.32;2.70;;;19.00;82.20;;;;;;5014236;28;20137;-76
2021/09/18 04:38:49;;;;;;;5.10;2.90;;;19.10;82.00;;;;;;5014088;28;20021;-75
2021/09/18 04:41:15;;;;;;;5.10;2.55;;;19.00;81.40;;;;;;5013643;28;20036;-76
2021/09/18 04:43:40;;;;;;;6.28;2.75;;;19.00;81.30;;;;;;5031435;28;20032;-77
2021/09/18 04:46:06;;;;;;;5.10;2.60;;;19.00;81.70;;;;;;5031777;28;20021;-77
2021/09/18 04:48:32;;;;;;;5.88;2.70;;;19.00;81.40;;;;;;5013836;28;20083;-76
2021/09/18 04:50:57;;;;;;;5.57;3.00;;;19.00;80.90;;;;;;5014658;28;20039;-76
2021/09/18 04:53:23;;;;;;;4.95;2.60;;;19.00;81.10;;;;;;5014503;28;20394;-76
2021/09/18 04:55:48;;;;;;;5.50;2.60;;;19.00;81.30;;;;;;5014047;28;20025;-77
2021/09/18 04:58:14;;;;;;;6.80;2.63;;;19.00;81.00;;;;;;5014055;28;20061;-76
2021/09/18 05:00:40;;;;;;;6.00;2.50;;;19.00;81.40;;;;;;5015024;28;20092;-77
2021/09/18 05:03:07;;;;;;;5.72;2.60;;;19.00;81.40;;;;;;5013725;28;20022;-76
2021/09/18 05:05:32;;;;;;;9.10;2.80;;;19.00;81.60;;;;;;5014687;28;20036;-76
2021/09/18 05:07:58;;;;;;;4.53;2.28;;;19.00;80.90;;;;;;5016496;28;20029;-76
2021/09/18 05:10:23;;;;;;;3.90;2.17;;;19.00;81.90;;;;;;5017813;28;20017;-77
2021/09/18 05:12:49;;;;;;;4.88;2.55;;;19.00;81.30;;;;;;5018497;28;20029;-76
2021/09/18 05:15:14;;;;;;;4.50;2.30;;;19.00;81.30;;;;;;5035874;28;20025;-77
2021/09/18 05:17:40;;;;;;;4.20;2.33;;;19.00;81.50;;;;;;5017176;28;20035;-76
2021/09/18 05:20:07;;;;;;;4.63;2.38;;;19.00;81.90;;;;;;5017768;28;20060;-77
2021/09/18 05:22:33;;;;;;;5.07;2.40;;;19.00;81.90;;;;;;5004332;28;20029;-76
2021/09/18 05:24:59;;;;;;;4.13;2.30;;;19.00;81.50;;;;;;5027035;28;20029;-76
2021/09/18 05:27:25;;;;;;;6.00;2.38;;;19.00;81.90;;;;;;4998505;28;20022;-77
2021/09/18 05:29:50;;;;;;;7.55;2.80;;;19.00;81.50;;;;;;4998308;28;20030;-77
2021/09/18 05:32:16;;;;;;;5.45;2.40;;;19.00;81.70;;;;;;5022907;28;20504;-77
2021/09/18 05:34:41;;;;;;;3.55;2.05;;;19.00;81.70;;;;;;5035553;28;20027;-76
2021/09/18 05:37:07;;;;;;;5.38;2.30;;;19.00;81.70;;;;;;5016853;28;20363;-77
2021/09/18 05:39:33;;;;;;;5.30;2.30;;;19.00;81.50;;;;;;5017290;28;20101;-75
2021/09/18 05:41:59;;;;;;;7.38;2.20;;;19.00;81.60;;;;;;5017499;28;20397;-77
2021/09/18 05:44:24;;;;;;;4.22;2.17;;;19.00;81.50;;;;;;5017463;28;20026;-77
2021/09/18 05:46:50;;;;;;;6.32;2.25;;;19.00;81.00;;;;;;5016925;28;20029;-76
2021/09/18 05:49:16;;;;;;;7.65;2.63;;;19.00;80.00;;;;;;5016875;28;20025;-76
2021/09/18 05:51:41;;;;;;;6.10;1.73;;;19.10;81.10;;;;;;5034604;28;20083;-76
2021/09/18 05:54:07;;;;;;;5.65;2.00;;;19.10;80.20;;;;;;5035213;28;20033;-78
2021/09/18 05:56:33;;;;;;;10.05;2.40;;;19.10;80.10;;;;;;5034604;28;20037;-77
2021/09/18 05:59:03;;;;;;;6.22;2.10;;;19.10;80.90;;;;;;5017514;28;20120;-77
2021/09/18 06:01:29;;;;;;;7.65;2.30;;;19.10;80.00;;;;;;5017121;28;20490;-77
2021/09/18 06:03:55;;;;;;;5.32;1.98;;;19.20;80.00;;;;;;5019749;28;20026;-75
2021/09/18 06:06:20;;;;;;;7.95;2.50;;;19.30;79.30;;;;;;5017573;28;20025;-77
2021/09/18 06:08:46;;;;;;;7.05;2.00;;;19.30;79.10;;;;;;5012839;28;20372;-77
2021/09/18 06:11:11;;;;;;;6.18;2.28;;;19.30;80.40;;;;;;5017979;28;20041;-77
2021/09/18 06:13:37;;;;;;;8.65;2.00;;;19.30;80.40;;;;;;5033312;28;20120;-77
2021/09/18 06:16:03;;;;;;;14.55;2.83;;;19.20;80.30;;;;;;5011594;28;20033;-77
2021/09/18 06:18:28;;;;;;;8.25;2.20;;;19.20;80.90;;;;;;5020132;28;20029;-77
2021/09/18 06:20:54;;;;;;;5.78;2.30;;;19.20;81.00;;;;;;5026656;28;20028;-78
2021/09/18 06:23:20;;;;;;;8.90;2.30;;;19.30;79.50;;;;;;5018979;28;20029;-77
2021/09/18 06:25:45;;;;;;;11.00;2.03;;;19.30;78.90;;;;;;5025065;28;20030;-77
2021/09/18 06:28:11;;;;;;;6.13;1.98;;;19.50;80.20;;;;;;5024332;28;20026;-78
2021/09/18 06:30:37;;;;;;;6.15;1.73;;;19.40;80.50;;;;;;4996143;28;20090;-77
2021/09/18 06:33:03;;;;;;;6.80;1.83;;;19.40;79.80;;;;;;5009527;28;20052;-77
2021/09/18 06:35:28;;;;;;;5.80;2.10;;;19.40;80.00;;;;;;5023430;28;20048;-77
2021/09/18 06:37:54;;;;;;;3.60;1.75;;;19.40;78.20;;;;;;5022627;28;20063;-78
2021/09/18 06:40:20;;;;;;;5.68;2.50;;;19.50;78.10;;;;;;5020212;28;20041;-78
2021/09/18 06:42:47;;;;;;;7.57;2.10;;;19.50;78.60;;;;;;5022233;28;20055;-77
2021/09/18 06:45:13;;;;;;;8.90;2.30;;;19.50;77.60;;;;;;5025797;28;20022;-77
2021/09/18 06:47:39;;;;;;;5.20;2.30;;;19.50;77.30;;;;;;5027105;28;20074;-77
2021/09/18 06:50:06;;;;;;;6.45;2.42;;;19.50;76.60;;;;;;5027796;28;20021;-77
2021/09/18 06:52:32;;;;;;;7.05;2.47;;;19.50;77.20;;;;;;5033435;28;20025;-78
2021/09/18 06:54:58;;;;;;;4.82;2.15;;;19.40;77.40;;;;;;5034429;28;20102;-77
2021/09/18 06:57:24;;;;;;;7.35;1.80;;;19.50;78.10;;;;;;5030408;28;20068;-77
2021/09/18 06:59:49;;;;;;;5.43;1.63;;;19.50;78.50;;;;;;5006295;28;20029;-77
2021/09/18 07:02:15;;;;;;;3.53;1.77;;;19.50;78.50;;;;;;4994408;28;20022;-77
2021/09/18 07:04:40;;;;;;;5.05;1.73;;;19.60;78.00;;;;;;5007455;28;20041;-77
2021/09/18 07:07:06;;;;;;;4.70;1.63;;;19.60;78.40;;;;;;5014857;28;20029;-78
2021/09/18 07:09:32;;;;;;;3.22;1.60;;;19.60;78.10;;;;;;5014435;28;20065;-77
2021/09/18 07:11:57;;;;;;;5.93;1.60;;;19.60;78.20;;;;;;5013498;28;20025;-76
2021/09/18 07:14:23;;;;;;;5.47;1.85;;;19.60;77.20;;;;;;5031630;28;20103;-78
2021/09/18 07:16:49;;;;;;;5.70;1.83;;;19.70;77.00;;;;;;5038296;28;20036;-76
2021/09/18 07:19:14;;;;;;;6.18;1.70;;;19.80;76.60;;;;;;5015425;28;20029;-76
2021/09/18 07:21:40;;;;;;;5.32;1.85;;;19.80;76.80;;;;;;5028304;28;20085;-78
2021/09/18 07:24:06;;;;;;;5.50;1.80;;;19.80;76.50;;;;;;5029807;28;20489;-77
2021/09/18 07:26:34;;;;;;;5.18;1.73;;;19.90;76.50;;;;;;5012334;28;20046;-76
2021/09/18 07:29:00;;;;;;;4.50;1.88;;;20.00;76.50;;;;;;5014804;28;20499;-76
2021/09/18 07:31:26;;;;;;;3.45;1.35;;;20.00;76.30;;;;;;5028974;28;20111;-77
2021/09/18 07:33:52;;;;;;;5.95;1.83;;;20.10;76.00;;;;;;5021631;28;20029;-78
2021/09/18 07:36:18;;;;;;;5.88;1.73;;;20.00;76.90;;;;;;5019346;28;20509;-77
2021/09/18 07:38:43;;;;;;;8.63;1.98;;;20.00;77.00;;;;;;5011837;28;20036;-78
2021/09/18 07:41:09;;;;;;;7.82;2.05;;;20.00;76.20;;;;;;5036199;28;20030;-78
2021/09/18 07:43:35;;;;;;;7.90;2.03;;;19.90;76.40;;;;;;5035398;28;20104;-79
2021/09/18 07:46:04;;;;;;;5.78;1.80;;;20.10;76.30;;;;;;5014495;28;20091;-78
2021/09/18 07:48:30;;;;;;;5.63;1.80;;;19.90;75.70;;;;;;5007615;28;20040;-78
2021/09/18 07:50:57;;;;;;;8.40;2.10;;;20.10;76.30;;;;;;4994751;28;20026;-77
2021/09/18 07:53:22;;;;;;;8.82;1.92;;;20.10;76.40;;;;;;4998130;28;20021;-76
2021/09/18 07:55:48;;;;;;;6.30;1.85;;;20.10;75.90;;;;;;5005825;28;20051;-77
2021/09/18 07:58:15;;;;;;;6.60;2.15;;;20.20;75.10;;;;;;5005376;28;20474;-76
2021/09/18 08:00:40;;;;;;;5.05;1.83;;;19.90;76.20;;;;;;5021516;28;20035;-77
2021/09/18 08:03:06;;;;;;;9.15;2.20;;;19.80;77.50;;;;;;5018750;28;20021;-76
2021/09/18 08:05:31;;;;;;;3.80;1.70;;;19.80;76.30;;;;;;5020332;28;20076;-76
2021/09/18 08:07:57;;;;;;;3.97;2.05;;;19.80;75.70;;;;;;5022115;28;20036;-78
2021/09/18 08:10:22;;;;;;;4.38;1.65;;;19.70;75.30;;;;;;5022757;28;20049;-76
2021/09/18 08:12:48;;;;;;;4.57;1.70;;;19.70;74.80;;;;;;5021830;28;20043;-76
2021/09/18 08:15:15;;;;;;;4.10;1.50;;;19.60;74.50;;;;;;5034277;28;20100;-77
2021/09/18 08:17:44;;;;;;;8.32;1.60;;;19.60;73.60;;;;;;5021700;28;20051;-77
2021/09/18 08:20:10;;;;;;;3.83;1.27;;;19.70;73.50;;;;;;5025016;28;20089;-79
2021/09/18 08:22:36;;;;;;;5.50;1.33;;;19.70;72.10;;;;;;5018714;28;20033;-77
2021/09/18 08:25:01;;;;;;;5.38;1.65;;;19.70;72.10;;;;;;4997894;28;20403;-77
2021/09/18 08:27:27;;;;;;;5.45;1.33;;;19.90;72.70;;;;;;5021866;28;20021;-77
2021/09/18 08:29:52;;;;;;;6.05;1.40;;;20.00;71.80;;;;;;5006663;28;20462;-76
2021/09/18 08:32:18;;;;;;;5.28;1.35;;;20.20;72.00;;;;;;5022347;28;20030;-78
2021/09/18 08:34:43;;;;;;;4.45;1.30;;;20.30;71.10;;;;;;4998601;28;20036;-77
2021/09/18 08:37:09;;;;;;;3.00;1.20;;;20.30;70.70;;;;;;4997209;28;20026;-78
2021/09/18 08:39:35;;;;;;;5.03;1.00;;;20.40;70.30;;;;;;4998237;28;20025;-78
2021/09/18 08:42:04;;;;;;;4.78;1.08;;;20.40;71.00;;;;;;5020454;28;20110;-77
2021/09/18 08:44:30;;;;;;;4.43;1.20;;;20.40;70.20;;;;;;5020227;28;20110;-76
2021/09/18 08:46:57;;;;;;;3.22;0.90;;;20.30;69.70;;;;;;5046461;28;20645;-78
2021/09/18 08:49:24;;;;;;;3.25;0.93;;;20.20;69.90;;;;;;5045649;28;20026;-78
2021/09/18 08:51:50;;;;;;;4.57;1.08;;;20.20;69.70;;;;;;5041420;28;20390;-76
2021/09/18 08:54:15;;;;;;;3.65;1.00;;;20.40;70.20;;;;;;5011507;28;20049;-77
2021/09/18 08:56:41;;;;;;;2.53;0.90;;;20.40;69.70;;;;;;5000707;28;20038;-78
2021/09/18 08:59:07;;;;;;;5.70;1.10;;;20.10;70.00;;;;;;5008881;28;20075;-78
2021/09/18 09:01:33;;;;;;;4.47;1.20;;;20.10;70.50;;;;;;5028280;28;20518;-78
2021/09/18 09:04:02;;;;;;;5.70;1.40;;;20.10;70.30;;;;;;5019868;28;20033;-76
2021/09/18 09:06:52;;;;;;;9.27;1.10;;;20.20;70.50;;;;;;5029122;28;20029;-77
2021/09/18 09:09:18;;;;;;;;;;;20.40;70.30;;;;;;5018864;28;20029;-77
2021/09/18 09:11:48;;;;;;;3.75;0.90;;;20.40;70.40;;;;;;5018322;28;20370;-77
2021/09/18 09:14:14;;;;;;;3.47;0.80;;;20.40;70.40;;;;;;5035116;28;20437;-79
2021/09/18 09:16:58;;;;;;;2.83;1.10;;;20.50;70.70;;;;;;5013792;28;20026;-78
2021/09/18 09:19:24;;;;;;;2.95;0.73;;;20.50;70.70;;;;;;5016953;28;20018;-78
2021/09/18 09:21:57;;;;;;;3.60;0.73;;;20.50;70.70;;;;;;5015774;28;20028;-77
2021/09/18 09:24:24;;;;;;;2.45;0.93;;;20.60;70.50;;;;;;5016110;28;20033;-77
2021/09/18 09:27:11;;;;;;;3.83;0.90;;;20.60;70.60;;;;;;5013151;28;20037;-77
2021/09/18 09:29:50;;;;;;;2.88;0.98;;;20.60;70.80;;;;;;5017235;28;20434;-79
2021/09/18 09:32:31;;;;;;;2.65;0.70;;;20.60;70.60;;;;;;5017706;28;20639;-78
2021/09/18 09:35:11;;;;;;;3.05;1.08;;;20.70;70.60;;;;;;5017421;28;20068;-76
2021/09/18 09:37:38;;;;;;;1.75;0.80;;;20.70;70.70;;;;;;5016325;28;20730;-77
2021/09/18 09:40:07;;;;;;;2.10;0.70;;;20.70;70.40;;;;;;5034646;28;20025;-77
2021/09/18 09:42:42;;;;;;;3.85;0.80;;;20.80;70.30;;;;;;5016245;28;20029;-77
2021/09/18 09:45:17;;;;;;;1.95;0.70;;;20.80;68.80;;;;;;5011917;28;20474;-77
2021/09/18 09:47:44;;;;;;;6.20;1.17;;;20.90;69.60;;;;;;5009930;28;20021;-77
2021/09/18 09:50:10;;;;;;;4.80;0.90;;;20.90;69.20;;;;;;5017564;28;20109;-76
2021/09/18 09:52:37;;;;;;;3.72;1.10;;;20.80;69.70;;;;;;5016484;28;20429;-79
2021/09/18 09:55:15;;;;;;;6.63;1.00;;;20.80;69.60;;;;;;5024535;28;20032;-78
2021/09/18 09:57:42;;;;;;;4.10;1.27;;;20.80;69.30;;;;;;5017088;28;20040;-77
2021/09/18 10:00:10;;;;;;;5.60;1.00;;;21.00;69.60;;;;;;5018935;28;20079;-76
2021/09/18 10:02:37;;;;;;;5.18;0.90;;;20.90;70.30;;;;;;5016691;28;20418;-79
2021/09/18 10:05:04;;;;;;;2.10;0.90;;;20.80;70.50;;;;;;5013380;28;20685;-76
2021/09/18 10:07:31;;;;;;;4.15;1.00;;;20.80;70.40;;;;;;5015439;28;20052;-78
2021/09/18 10:09:58;;;;;;;4.00;1.38;;;20.80;70.60;;;;;;5017502;28;20083;-78
2021/09/18 10:12:24;;;;;;;3.83;1.10;;;20.90;70.30;;;;;;5016913;28;20018;-77
2021/09/18 10:14:53;;;;;;;2.75;0.90;;;20.90;70.80;;;;;;5017294;28;20095;-78
2021/09/18 10:17:20;;;;;;;3.88;1.20;;;20.90;70.20;;;;;;5017316;28;20033;-77
2021/09/18 10:25:22;;;;;;;12.02;1.50;;;20.90;70.10;;;;;;5035413;28;20107;-77
2021/09/18 10:28:01;;;;;;;1.23;0.70;;;20.90;70.00;;;;;;5016828;28;20482;-77
2021/09/18 10:30:33;;;;;;;4.82;0.95;;;21.00;71.00;;;;;;5017068;28;20029;-78
2021/09/18 10:32:59;;;;;;;3.10;0.90;;;21.00;71.10;;;;;;5038994;28;20044;-77
2021/09/18 10:35:28;;;;;;;5.53;1.10;;;21.00;71.70;;;;;;5022683;28;20030;-77
2021/09/18 10:37:53;;;;;;;5.85;1.20;;;21.00;70.30;;;;;;5035516;28;20040;-77
2021/09/18 10:40:19;;;;;;;4.22;1.00;;;21.10;70.90;;;;;;5017246;28;20022;-77
2021/09/18 10:42:48;;;;;;;7.97;1.20;;;21.10;71.20;;;;;;5033788;28;20022;-78
2021/09/18 10:45:16;;;;;;;4.82;1.20;;;21.10;70.30;;;;;;5015715;28;20014;-77
2021/09/18 10:47:42;;;;;;;4.95;0.90;;;21.20;70.50;;;;;;5016802;28;20025;-76
2021/09/18 10:50:37;;;;;;;3.00;0.93;;;21.20;70.70;;;;;;5017516;28;20032;-77
2021/09/18 10:53:06;;;;;;;2.28;0.80;;;21.20;69.80;;;;;;5011922;28;20079;-77
2021/09/18 10:55:49;;;;;;;2.38;0.90;;;21.30;70.70;;;;;;5032770;28;20116;-77
2021/09/18 10:58:15;;;;;;;4.50;1.10;;;21.20;69.50;;;;;;5003877;28;20021;-77
2021/09/18 11:00:43;;;;;;;1.85;0.85;;;21.30;69.90;;;;;;5032621;28;20040;-77
2021/09/18 11:03:09;;;;;;;3.38;0.95;;;21.30;70.40;;;;;;5012850;28;20075;-77
2021/09/18 11:05:37;;;;;;;3.75;0.90;;;21.20;70.50;;;;;;5015851;28;20026;-77
2021/09/18 11:08:13;;;;;;;2.45;0.93;;;21.20;70.20;;;;;;5034281;28;20076;-77
2021/09/18 11:10:45;;;;;;;3.22;0.90;;;21.20;70.10;;;;;;5016339;28;20033;-76
2021/09/18 11:13:11;;;;;;;3.10;1.05;;;21.20;70.70;;;;;;5012688;28;20033;-75
2021/09/18 11:16:14;;;;;;;1.25;0.90;;;21.20;70.70;;;;;;5016540;28;20025;-77
2021/09/18 11:18:44;;;;;;;3.42;1.20;;;21.20;70.10;;;;;;5025984;28;20042;-77
2021/09/18 11:21:09;;;;;;;3.85;0.95;;;21.20;70.30;;;;;;5015394;28;20079;-77
2021/09/18 11:23:46;;;;;;;2.20;0.90;;;21.20;69.70;;;;;;5026758;28;20028;-76
2021/09/18 11:26:31;;;;;;;3.67;1.00;;;21.10;70.30;;;;;;5035685;28;20074;-77
2021/09/18 11:29:17;;;;;;;2.13;1.10;;;21.00;70.60;;;;;;5035736;28;20025;-78
2021/09/18 11:32:02;;;;;;;2.10;0.90;;;20.90;70.30;;;;;;5035821;28;20052;-76
2021/09/18 11:34:30;;;;;;;2.63;1.10;;;20.90;70.00;;;;;;5035521;28;20055;-77
2021/09/18 11:36:59;;;;;;;2.50;0.90;;;21.10;70.70;;;;;;5020020;28;20029;-77
2021/09/18 11:39:41;;;;;;;3.05;0.98;;;21.00;70.30;;;;;;5033688;28;20026;-77
2021/09/18 11:42:18;;;;;;;2.55;0.80;;;21.10;70.50;;;;;;5033340;28;20863;-77
2021/09/18 11:44:46;;;;;;;2.53;1.08;;;21.10;70.20;;;;;;5011126;28;20052;-78
2021/09/18 11:47:11;;;;;;;2.80;1.00;;;21.10;70.10;;;;;;5007423;28;20030;-76
2021/09/18 11:49:37;;;;;;;2.25;0.98;;;21.10;70.30;;;;;;5015212;28;20120;-78
2021/09/18 11:52:04;;;;;;;2.22;0.80;;;21.10;69.60;;;;;;5003298;28;20018;-76
2021/09/18 11:54:31;;;;;;;3.05;1.17;;;21.10;70.50;;;;;;5005451;28;20033;-76
2021/09/18 11:57:18;;;;;;;3.63;0.73;;;21.10;69.60;;;;;;4996022;28;20080;-77
2021/09/18 11:59:44;;;;;;;1.10;0.80;;;21.10;70.70;;;;;;5030556;28;20033;-78
2021/09/18 12:02:10;;;;;;;2.65;1.30;;;21.10;70.10;;;;;;5014913;28;20026;-77
2021/09/18 12:04:48;;;;;;;2.70;0.93;;;21.10;69.80;;;;;;5013848;28;20059;-77
2021/09/18 12:07:13;;;;;;;5.30;1.20;;;21.10;69.10;;;;;;5043092;28;20017;-75
2021/09/18 12:09:40;;;;;;;4.68;1.10;;;21.10;71.40;;;;;;5007737;28;20032;-77
2021/09/18 12:12:07;;;;;;;5.55;1.27;;;21.10;70.10;;;;;;5032041;28;20033;-76
2021/09/18 12:14:34;;;;;;;6.90;1.13;;;21.10;70.80;;;;;;5040625;28;20103;-77
2021/09/18 12:17:18;;;;;;;5.88;1.27;;;21.10;70.10;;;;;;5007646;28;20033;-77
2021/09/18 12:19:44;;;;;;;5.28;1.20;;;21.10;72.20;;;;;;5023188;28;20080;-77
2021/09/18 12:22:11;;;;;;;2.63;1.00;;;21.00;72.50;;;;;;5023343;28;20034;-77
2021/09/18 12:24:38;;;;;;;3.03;1.25;;;20.90;72.00;;;;;;5024015;28;20398;-77
2021/09/18 12:27:30;;;;;;;2.17;1.20;;;20.90;69.70;;;;;;5012727;28;20021;-76
2021/09/18 12:30:14;;;;;;;4.15;1.08;;;21.00;68.50;;;;;;5020901;28;20025;-77
2021/09/18 12:32:40;;;;;;;6.13;1.10;;;21.10;70.10;;;;;;5035981;28;20379;-77
2021/09/18 12:35:09;;;;;;;6.28;1.10;;;21.00;70.80;;;;;;5016962;28;20048;-77
2021/09/18 12:37:38;;;;;;;4.45;1.27;;;20.80;72.10;;;;;;5029699;28;21456;-77
2021/09/18 12:40:16;;;;;;;6.78;1.25;;;20.60;71.60;;;;;;5015060;28;20678;-78
2021/09/18 12:42:42;;;;;;;4.97;1.20;;;20.50;71.50;;;;;;5022449;28;20033;-77
2021/09/18 12:45:41;;;;;;;22.83;2.40;;;20.60;70.70;;;;;;5014938;28;20022;-77
2021/09/18 12:48:24;;;;;;;5.10;1.23;;;20.60;70.90;;;;;;4975530;28;20647;-76
2021/09/18 12:50:52;;;;;;;9.52;1.20;;;20.60;70.80;;;;;;5012757;28;20021;-76
2021/09/18 12:53:29;;;;;;;2.55;1.02;;;20.60;70.70;;;;;;5032399;28;20026;-78
2021/09/18 12:56:20;;;;;;;3.70;1.08;;;20.70;71.80;;;;;;5028390;28;20030;-78